createdAt,value
2017-12-27T00:01:48.822Z,3.40
2017-12-27T00:04:21.826Z,4.00
2017-12-27T00:06:54.803Z,3.00
2017-12-27T00:09:28.038Z,3.83
2017-12-27T00:12:01.072Z,4.63
2017-12-27T00:17:44.502Z,4.60
2017-12-27T00:20:17.675Z,3.63
2017-12-27T00:22:50.805Z,3.33
2017-12-27T00:25:23.912Z,3.77
2017-12-27T00:27:57.015Z,3.83
2017-12-27T00:30:30.071Z,3.20
2017-12-27T00:32:57.511Z,3.73
2017-12-27T00:35:24.957Z,3.97
2017-12-27T00:37:52.474Z,3.60
2017-12-27T00:40:19.895Z,3.23
2017-12-27T00:42:47.381Z,3.37
2017-12-27T00:45:14.834Z,3.70
2017-12-27T00:47:42.270Z,3.03
2017-12-27T00:50:09.759Z,3.10
2017-12-27T00:52:37.214Z,3.20
2017-12-27T00:55:04.672Z,3.00
2017-12-27T00:57:32.147Z,3.33
2017-12-27T00:59:59.592Z,3.57
2017-12-27T01:02:27.087Z,2.90
2017-12-27T01:04:55.482Z,3.10
2017-12-27T01:07:22.934Z,3.70
2017-12-27T01:09:50.422Z,3.40
2017-12-27T01:12:17.858Z,3.40
2017-12-27T01:14:45.303Z,4.57
2017-12-27T01:17:12.763Z,3.73
2017-12-27T01:19:40.202Z,3.13
2017-12-27T01:22:07.659Z,3.27
2017-12-27T01:24:35.106Z,3.80
2017-12-27T01:27:02.597Z,3.63
2017-12-27T01:29:30.043Z,3.50
2017-12-27T01:31:57.490Z,3.10
2017-12-27T01:34:24.942Z,3.10
2017-12-27T01:36:52.382Z,3.30
2017-12-27T01:39:19.880Z,3.20
2017-12-27T01:41:47.327Z,3.37
2017-12-27T01:44:14.781Z,3.00
2017-12-27T01:46:42.250Z,3.17
2017-12-27T01:49:09.701Z,3.10
2017-12-27T01:51:37.159Z,3.30
2017-12-27T01:54:04.648Z,3.80
2017-12-27T01:56:32.115Z,3.13
2017-12-27T01:58:59.567Z,3.47
2017-12-27T02:01:27.027Z,3.00
2017-12-27T02:03:54.471Z,2.87
2017-12-27T02:06:21.935Z,3.33
2017-12-27T02:08:49.373Z,3.07
2017-12-27T02:11:16.815Z,3.30
2017-12-27T02:13:44.271Z,3.80
2017-12-27T02:16:11.719Z,4.30
2017-12-27T02:18:39.213Z,3.60
2017-12-27T02:21:06.668Z,3.57
2017-12-27T02:23:34.122Z,4.17
2017-12-27T02:26:01.592Z,3.90
2017-12-27T02:28:29.035Z,3.97
2017-12-27T02:30:56.500Z,3.77
2017-12-27T02:33:23.958Z,3.57
2017-12-27T02:35:51.425Z,3.70
2017-12-27T02:38:18.890Z,3.90
2017-12-27T02:40:46.359Z,3.30
2017-12-27T02:43:13.799Z,3.73
2017-12-27T02:45:41.259Z,3.60
2017-12-27T02:48:08.716Z,3.87
2017-12-27T02:50:36.167Z,3.60
2017-12-27T02:53:03.643Z,3.50
2017-12-27T02:55:31.087Z,3.87
2017-12-27T02:57:58.591Z,3.90
2017-12-27T03:00:26.032Z,4.47
2017-12-27T03:02:53.480Z,3.40
2017-12-27T03:05:20.950Z,3.80
2017-12-27T03:07:48.403Z,4.13
2017-12-27T03:10:15.876Z,5.10
2017-12-27T03:12:43.322Z,4.13
2017-12-27T03:15:10.782Z,3.77
2017-12-27T03:17:38.234Z,3.63
2017-12-27T03:20:05.691Z,4.33
2017-12-27T03:22:33.137Z,3.53
2017-12-27T03:25:00.611Z,3.47
2017-12-27T03:27:28.054Z,2.83
2017-12-27T03:29:55.514Z,3.50
2017-12-27T03:32:22.966Z,3.60
2017-12-27T03:34:50.607Z,4.20
2017-12-27T03:37:18.050Z,3.43
2017-12-27T03:39:45.498Z,3.20
2017-12-27T03:42:12.955Z,3.00
2017-12-27T03:44:40.404Z,2.77
2017-12-27T03:47:07.864Z,2.47
2017-12-27T03:49:35.306Z,2.83
2017-12-27T03:52:02.758Z,2.57
2017-12-27T03:54:30.296Z,2.70
2017-12-27T03:56:57.763Z,2.83
2017-12-27T03:59:25.207Z,2.77
2017-12-27T04:01:52.671Z,2.60
2017-12-27T04:04:20.147Z,2.27
2017-12-27T04:06:47.589Z,2.33
2017-12-27T04:09:15.035Z,2.77
2017-12-27T04:11:42.515Z,2.60
2017-12-27T04:14:09.973Z,2.70
2017-12-27T04:16:37.454Z,3.80
2017-12-27T04:19:04.914Z,2.80
2017-12-27T04:21:32.369Z,2.60
2017-12-27T04:23:59.827Z,3.40
2017-12-27T04:26:27.303Z,2.87
2017-12-27T04:28:54.759Z,3.00
2017-12-27T04:31:22.201Z,2.97
2017-12-27T04:33:49.671Z,3.00
2017-12-27T04:36:17.115Z,2.60
2017-12-27T04:38:44.758Z,3.50
2017-12-27T04:41:12.210Z,4.17
2017-12-27T04:43:39.668Z,5.60
2017-12-27T04:46:07.160Z,4.70
2017-12-27T04:48:34.997Z,3.20
2017-12-27T04:51:02.467Z,3.47
2017-12-27T04:53:29.986Z,3.47
2017-12-27T04:55:57.450Z,3.50
2017-12-27T04:58:24.888Z,3.47
2017-12-27T05:00:52.332Z,3.20
2017-12-27T05:03:19.837Z,3.80
2017-12-27T05:05:47.296Z,3.50
2017-12-27T05:08:14.751Z,3.00
2017-12-27T05:10:42.216Z,3.77
2017-12-27T05:13:09.706Z,3.47
2017-12-27T05:15:37.195Z,3.90
2017-12-27T05:18:04.652Z,4.03
2017-12-27T05:20:32.115Z,3.43
2017-12-27T05:22:59.574Z,4.10
2017-12-27T05:25:27.031Z,3.70
2017-12-27T05:27:54.490Z,2.97
2017-12-27T05:30:21.931Z,2.90
2017-12-27T05:32:49.397Z,3.00
2017-12-27T05:35:16.846Z,2.97
2017-12-27T05:37:44.311Z,3.10
2017-12-27T05:40:11.757Z,3.47
2017-12-27T05:42:39.239Z,3.30
2017-12-27T05:45:06.679Z,3.10
2017-12-27T05:47:34.135Z,3.10
2017-12-27T05:50:01.595Z,3.73
2017-12-27T05:52:29.040Z,4.40
2017-12-27T05:54:56.510Z,4.07
2017-12-27T05:57:23.957Z,4.03
2017-12-27T05:59:51.422Z,3.57
2017-12-27T06:02:18.870Z,3.27
2017-12-27T06:04:46.371Z,3.43
2017-12-27T06:07:13.816Z,3.13
2017-12-27T06:09:41.273Z,2.97
2017-12-27T06:12:08.736Z,3.83
2017-12-27T06:14:36.188Z,3.17
2017-12-27T06:17:03.657Z,3.00
2017-12-27T06:19:31.115Z,3.40
2017-12-27T06:21:58.555Z,3.40
2017-12-27T06:24:26.011Z,3.90
2017-12-27T06:26:53.476Z,3.30
2017-12-27T06:29:20.958Z,4.30
2017-12-27T06:31:48.404Z,4.27
2017-12-27T06:34:15.852Z,4.00
2017-12-27T06:36:43.329Z,3.97
2017-12-27T06:39:10.779Z,4.40
2017-12-27T06:41:38.222Z,4.77
2017-12-27T06:44:05.721Z,4.57
2017-12-27T06:46:33.159Z,4.40
2017-12-27T06:49:00.607Z,5.00
2017-12-27T06:51:28.070Z,5.13
2017-12-27T06:53:55.517Z,4.93
2017-12-27T06:56:23.001Z,4.70
2017-12-27T06:58:50.443Z,4.93
2017-12-27T07:01:17.895Z,4.63
2017-12-27T07:03:45.355Z,4.80
2017-12-27T07:06:12.800Z,4.90
2017-12-27T07:08:40.280Z,5.00
2017-12-27T07:11:07.727Z,4.20
2017-12-27T07:13:35.168Z,6.00
2017-12-27T07:16:02.625Z,4.73
2017-12-27T07:18:30.071Z,6.40
2017-12-27T07:20:57.533Z,4.77
2017-12-27T07:23:24.973Z,5.10
2017-12-27T07:25:52.441Z,4.50
2017-12-27T07:28:19.887Z,5.30
2017-12-27T07:30:47.353Z,5.40
2017-12-27T07:33:14.796Z,5.73
2017-12-27T07:35:42.476Z,5.90
2017-12-27T07:38:09.911Z,5.10
2017-12-27T07:40:37.361Z,5.30
2017-12-27T07:43:04.834Z,5.87
2017-12-27T07:45:32.295Z,5.83
2017-12-27T07:47:59.757Z,5.07
2017-12-27T07:50:27.223Z,6.20
2017-12-27T07:52:54.693Z,6.07
2017-12-27T07:55:22.139Z,6.30
2017-12-27T07:57:49.627Z,5.87
2017-12-27T08:00:17.077Z,5.50
2017-12-27T08:02:44.563Z,6.40
2017-12-27T08:05:12.046Z,4.57
2017-12-27T08:07:39.491Z,4.70
2017-12-27T08:10:06.955Z,5.50
2017-12-27T08:12:34.399Z,5.70
2017-12-27T08:15:01.864Z,7.37
2017-12-27T08:17:29.323Z,6.23
2017-12-27T08:19:56.855Z,5.43
2017-12-27T08:22:24.318Z,5.90
2017-12-27T08:24:51.769Z,6.40
2017-12-27T08:27:19.230Z,9.90
2017-12-27T08:29:46.683Z,8.87
2017-12-27T08:32:14.194Z,6.47
2017-12-27T08:34:41.667Z,6.30
2017-12-27T08:37:09.103Z,5.70
2017-12-27T08:39:36.559Z,5.03
2017-12-27T08:42:04.031Z,5.30
2017-12-27T08:44:31.495Z,5.83
2017-12-27T08:46:58.940Z,5.37
2017-12-27T08:49:26.436Z,5.23
2017-12-27T08:51:53.886Z,5.07
2017-12-27T08:54:21.339Z,5.07
2017-12-27T08:56:48.796Z,5.20
2017-12-27T08:59:16.251Z,4.33
2017-12-27T09:01:43.713Z,5.03
2017-12-27T09:04:11.155Z,3.80
2017-12-27T09:06:38.642Z,4.73
2017-12-27T09:09:06.066Z,4.27
2017-12-27T09:11:33.522Z,4.77
2017-12-27T09:14:00.979Z,5.73
2017-12-27T09:16:28.455Z,5.43
2017-12-27T09:18:55.895Z,5.67
2017-12-27T09:21:23.333Z,5.53
2017-12-27T09:23:50.797Z,5.83
2017-12-27T09:26:18.244Z,5.53
2017-12-27T09:28:45.734Z,6.43
2017-12-27T09:31:13.188Z,7.17
2017-12-27T09:33:40.658Z,7.13
2017-12-27T09:36:08.123Z,6.90
2017-12-27T09:38:35.614Z,8.03
2017-12-27T09:41:03.083Z,7.33
2017-12-27T09:43:30.534Z,6.47
2017-12-27T09:45:58.035Z,7.00
2017-12-27T09:48:25.506Z,6.63
2017-12-27T09:50:52.955Z,5.93
2017-12-27T09:53:20.426Z,6.20
2017-12-27T09:55:47.877Z,6.13
2017-12-27T09:58:15.339Z,6.43
2017-12-27T10:00:42.793Z,6.00
2017-12-27T10:03:10.255Z,7.33
2017-12-27T10:05:37.707Z,6.17
2017-12-27T10:08:05.195Z,6.80
2017-12-27T10:10:32.638Z,6.20
2017-12-27T10:13:00.079Z,6.17
2017-12-27T10:15:27.569Z,7.40
2017-12-27T10:17:55.007Z,7.90
2017-12-27T10:20:22.474Z,6.83
2017-12-27T10:22:49.927Z,8.90
2017-12-27T10:25:17.396Z,8.07
2017-12-27T10:27:44.834Z,7.30
2017-12-27T10:30:12.355Z,7.57
2017-12-27T10:32:39.803Z,5.73
2017-12-27T10:35:07.255Z,7.33
2017-12-27T10:37:34.710Z,6.00
2017-12-27T10:40:02.194Z,8.10
2017-12-27T10:42:29.665Z,6.80
2017-12-27T10:44:57.111Z,8.47
2017-12-27T10:47:24.587Z,8.13
2017-12-27T10:49:52.030Z,8.70
2017-12-27T10:52:19.487Z,7.90
2017-12-27T10:54:46.994Z,8.70
2017-12-27T10:57:14.469Z,8.73
2017-12-27T10:59:41.928Z,9.40
2017-12-27T11:02:09.435Z,10.00
2017-12-27T11:04:36.903Z,10.00
2017-12-27T11:07:04.351Z,8.97
2017-12-27T11:09:31.831Z,8.50
2017-12-27T11:11:59.286Z,8.60
2017-12-27T11:14:26.738Z,9.40
2017-12-27T11:16:54.182Z,8.33
2017-12-27T11:19:21.651Z,7.70
2017-12-27T11:21:49.101Z,7.70
2017-12-27T11:24:16.798Z,7.40
2017-12-27T11:26:44.247Z,7.70
2017-12-27T11:29:11.868Z,9.20
2017-12-27T11:31:39.329Z,7.27
2017-12-27T11:34:06.774Z,7.37
2017-12-27T11:36:34.242Z,7.97
2017-12-27T11:39:01.696Z,7.77
2017-12-27T11:41:29.181Z,7.70
2017-12-27T11:43:56.637Z,7.87
2017-12-27T11:46:24.107Z,7.43
2017-12-27T11:48:51.562Z,8.10
2017-12-27T11:51:19.051Z,7.50
2017-12-27T11:53:46.501Z,7.90
2017-12-27T11:56:13.946Z,7.60
2017-12-27T11:58:42.925Z,7.87
2017-12-27T12:01:10.381Z,7.57
2017-12-27T12:03:37.839Z,7.30
2017-12-27T12:06:05.286Z,7.03
2017-12-27T12:08:32.887Z,8.00
2017-12-27T12:11:00.328Z,8.70
2017-12-27T12:13:27.783Z,7.10
2017-12-27T12:15:55.247Z,7.63
2017-12-27T12:18:22.697Z,7.50
2017-12-27T12:20:50.188Z,8.57
2017-12-27T12:23:17.639Z,7.47
2017-12-27T12:25:45.106Z,7.50
2017-12-27T12:28:12.574Z,7.03
2017-12-27T12:30:40.026Z,6.27
2017-12-27T12:33:07.490Z,5.93
2017-12-27T12:35:34.935Z,7.27
2017-12-27T12:38:02.412Z,6.93
2017-12-27T12:40:29.857Z,6.60
2017-12-27T12:42:57.327Z,7.03
2017-12-27T12:45:24.782Z,5.70
2017-12-27T12:47:52.242Z,6.10
2017-12-27T12:50:19.686Z,5.93
2017-12-27T12:52:47.152Z,6.90
2017-12-27T12:55:16.271Z,6.33
2017-12-27T12:57:43.751Z,6.30
2017-12-27T13:00:11.204Z,5.33
2017-12-27T13:02:38.705Z,8.37
2017-12-27T13:05:06.169Z,10.90
2017-12-27T13:07:33.643Z,8.40
2017-12-27T13:10:01.127Z,6.77
2017-12-27T13:12:28.591Z,6.83
2017-12-27T13:14:56.038Z,6.53
2017-12-27T13:17:23.532Z,7.37
2017-12-27T13:19:50.999Z,8.20
2017-12-27T13:22:18.482Z,8.03
2017-12-27T13:24:45.933Z,7.00
2017-12-27T13:27:13.417Z,6.03
2017-12-27T13:29:41.044Z,4.87
2017-12-27T13:32:08.511Z,6.50
2017-12-27T13:34:35.955Z,5.97
2017-12-27T13:37:03.455Z,5.83
2017-12-27T13:39:30.910Z,6.17
2017-12-27T13:41:58.355Z,6.17
2017-12-27T13:44:25.826Z,5.80
2017-12-27T13:46:53.282Z,5.60
2017-12-27T13:49:20.749Z,6.87
2017-12-27T13:51:48.196Z,6.17
2017-12-27T13:54:15.688Z,5.67
2017-12-27T13:56:43.149Z,5.90
2017-12-27T13:59:10.591Z,5.23
2017-12-27T14:01:38.063Z,5.60
2017-12-27T14:04:05.517Z,5.60
2017-12-27T14:06:33.010Z,10.07
2017-12-27T14:09:00.463Z,20.43
2017-12-27T14:11:27.922Z,6.40
2017-12-27T14:13:55.367Z,6.23
2017-12-27T14:16:22.862Z,6.73
2017-12-27T14:18:50.331Z,7.30
2017-12-27T14:21:17.782Z,7.47
2017-12-27T14:23:45.271Z,7.20
2017-12-27T14:26:12.732Z,8.37
2017-12-27T14:28:40.234Z,6.80
2017-12-27T14:31:07.708Z,6.67
2017-12-27T14:33:35.154Z,6.87
2017-12-27T14:36:02.622Z,6.87
2017-12-27T14:38:30.062Z,5.70
2017-12-27T14:40:57.553Z,7.13
2017-12-27T14:43:24.995Z,5.77
2017-12-27T14:45:52.454Z,6.10
2017-12-27T14:48:19.939Z,6.13
2017-12-27T14:50:47.394Z,7.30
2017-12-27T14:53:14.887Z,6.47
2017-12-27T14:55:42.379Z,6.57
2017-12-27T14:58:09.827Z,6.13
2017-12-27T15:00:37.290Z,6.23
2017-12-27T15:03:04.759Z,6.20
2017-12-27T15:05:32.255Z,7.03
2017-12-27T15:07:59.907Z,7.43
2017-12-27T15:10:27.386Z,6.10
2017-12-27T15:12:54.827Z,7.10
2017-12-27T15:15:22.290Z,6.40
2017-12-27T15:17:49.737Z,6.67
2017-12-27T15:20:17.254Z,6.70
2017-12-27T15:22:44.704Z,7.80
2017-12-27T15:25:12.191Z,7.30
2017-12-27T15:27:39.651Z,12.70
2017-12-27T15:30:07.106Z,6.73
2017-12-27T15:32:34.571Z,6.87
2017-12-27T15:35:02.024Z,6.10
2017-12-27T15:37:29.514Z,5.77
2017-12-27T15:39:56.998Z,6.60
2017-12-27T15:42:24.438Z,7.10
2017-12-27T15:44:51.899Z,7.50
2017-12-27T15:47:19.376Z,6.60
2017-12-27T15:49:46.878Z,7.30
2017-12-27T15:52:14.330Z,6.40
2017-12-27T15:54:41.807Z,7.70
2017-12-27T15:57:09.263Z,7.80
2017-12-27T15:59:37.678Z,6.60
2017-12-27T16:02:05.127Z,7.03
2017-12-27T16:04:32.591Z,7.20
2017-12-27T16:07:00.062Z,7.20
2017-12-27T16:09:27.524Z,7.30
2017-12-27T16:11:55.058Z,7.73
2017-12-27T16:14:22.535Z,7.77
2017-12-27T16:16:49.974Z,6.90
2017-12-27T16:19:17.434Z,7.13
2017-12-27T16:21:44.874Z,7.97
2017-12-27T16:24:12.337Z,7.87
2017-12-27T16:26:39.794Z,9.60
2017-12-27T16:29:07.280Z,8.13
2017-12-27T16:31:34.732Z,7.33
2017-12-27T16:34:02.185Z,7.17
2017-12-27T16:36:29.642Z,7.83
2017-12-27T16:38:57.095Z,7.53
2017-12-27T16:41:24.664Z,7.40
2017-12-27T16:43:52.105Z,7.10
2017-12-27T16:46:19.553Z,7.90
2017-12-27T16:48:47.008Z,7.40
2017-12-27T16:51:14.474Z,7.17
2017-12-27T16:53:41.938Z,6.87
2017-12-27T16:56:09.383Z,6.47
2017-12-27T16:58:36.862Z,7.40
2017-12-27T17:01:04.296Z,7.50
2017-12-27T17:03:31.756Z,9.20
2017-12-27T17:05:59.252Z,8.47
2017-12-27T17:08:26.705Z,7.50
2017-12-27T17:10:54.319Z,8.00
2017-12-27T17:13:21.781Z,7.93
2017-12-27T17:15:49.245Z,7.40
2017-12-27T17:18:16.739Z,7.37
2017-12-27T17:20:44.197Z,7.17
2017-12-27T17:23:11.671Z,7.70
2017-12-27T17:25:39.130Z,7.17
2017-12-27T17:28:06.616Z,8.57
2017-12-27T17:30:34.078Z,7.03
2017-12-27T17:33:01.557Z,8.70
2017-12-27T17:35:29.020Z,7.30
2017-12-27T17:37:56.480Z,7.77
2017-12-27T17:40:23.966Z,7.30
2017-12-27T17:42:51.672Z,6.63
2017-12-27T17:45:19.130Z,7.97
2017-12-27T17:47:46.587Z,7.93
2017-12-27T17:50:14.052Z,7.50
2017-12-27T17:52:41.527Z,6.73
2017-12-27T17:55:09.073Z,7.17
2017-12-27T17:57:36.562Z,7.23
2017-12-27T18:00:04.017Z,6.60
2017-12-27T18:02:31.471Z,6.63
2017-12-27T18:04:58.934Z,6.87
2017-12-27T18:07:26.385Z,7.03
2017-12-27T18:09:53.867Z,7.50
2017-12-27T18:12:21.326Z,7.70
2017-12-27T18:14:48.787Z,8.07
2017-12-27T18:17:16.254Z,8.30
2017-12-27T18:19:43.718Z,6.77
2017-12-27T18:22:11.210Z,7.30
2017-12-27T18:24:38.675Z,7.97
2017-12-27T18:27:06.169Z,7.90
2017-12-27T18:29:33.626Z,7.97
2017-12-27T18:32:01.073Z,7.50
2017-12-27T18:34:28.544Z,7.37
2017-12-27T18:36:56.007Z,7.77
2017-12-27T18:39:23.474Z,7.40
2017-12-27T18:41:50.920Z,7.00
2017-12-27T18:44:18.403Z,6.10
2017-12-27T18:46:45.854Z,6.63
2017-12-27T18:49:13.311Z,6.07
2017-12-27T18:51:40.770Z,4.80
2017-12-27T18:54:08.212Z,6.63
2017-12-27T18:56:35.687Z,6.20
2017-12-27T18:59:03.168Z,6.80
2017-12-27T19:01:30.636Z,6.80
2017-12-27T19:03:58.138Z,6.03
2017-12-27T19:06:25.595Z,7.30
2017-12-27T19:08:53.042Z,7.47
2017-12-27T19:11:20.538Z,7.20
2017-12-27T19:13:48.016Z,6.77
2017-12-27T19:16:15.475Z,7.10
2017-12-27T19:18:42.980Z,6.00
2017-12-27T19:21:10.433Z,6.13
2017-12-27T19:23:37.876Z,7.63
2017-12-27T19:26:05.825Z,7.03
2017-12-27T19:28:33.290Z,6.50
2017-12-27T19:31:00.778Z,6.07
2017-12-27T19:33:28.234Z,6.30
2017-12-27T19:35:55.713Z,6.67
2017-12-27T19:38:23.174Z,5.70
2017-12-27T19:40:50.634Z,5.77
2017-12-27T19:43:18.113Z,6.50
2017-12-27T19:45:45.567Z,6.77
2017-12-27T19:48:13.050Z,6.00
2017-12-27T19:50:40.504Z,6.67
2017-12-27T19:53:07.980Z,6.40
2017-12-27T19:55:35.454Z,5.37
2017-12-27T19:58:02.959Z,6.80
2017-12-27T20:00:30.409Z,6.40
2017-12-27T20:02:57.864Z,5.90
2017-12-27T20:05:25.360Z,5.40
2017-12-27T20:07:52.809Z,6.03
2017-12-27T20:10:20.305Z,7.70
2017-12-27T20:12:47.760Z,7.07
2017-12-27T20:15:15.209Z,7.30
2017-12-27T20:17:42.675Z,6.93
2017-12-27T20:20:10.163Z,5.40
2017-12-27T20:22:37.636Z,4.93
2017-12-27T20:25:05.090Z,5.60
2017-12-27T20:27:32.566Z,5.57
2017-12-27T20:30:00.029Z,5.20
2017-12-27T20:32:27.486Z,5.10
2017-12-27T20:34:54.951Z,4.87
2017-12-27T20:37:22.476Z,6.00
2017-12-27T20:39:49.966Z,5.70
2017-12-27T20:42:17.406Z,5.43
2017-12-27T20:44:44.878Z,4.30
2017-12-27T20:47:12.384Z,4.90
2017-12-27T20:49:39.827Z,4.13
2017-12-27T20:52:07.276Z,4.57
2017-12-27T20:54:34.739Z,4.77
2017-12-27T20:57:02.186Z,4.97
2017-12-27T20:59:29.681Z,7.20
2017-12-27T21:01:57.123Z,6.33
2017-12-27T21:04:24.575Z,7.30
2017-12-27T21:06:52.038Z,7.80
2017-12-27T21:09:19.480Z,6.30
2017-12-27T21:11:46.970Z,4.80
2017-12-27T21:14:14.509Z,4.63
2017-12-27T21:16:41.930Z,8.23
2017-12-27T21:19:09.410Z,6.70
2017-12-27T21:21:36.873Z,4.47
2017-12-27T21:24:04.350Z,4.70
2017-12-27T21:26:31.804Z,3.90
2017-12-27T21:28:59.259Z,3.80
2017-12-27T21:31:26.715Z,3.30
2017-12-27T21:33:54.174Z,3.97
2017-12-27T21:36:21.626Z,4.00
2017-12-27T21:38:49.089Z,3.10
2017-12-27T21:41:16.534Z,4.47
2017-12-27T21:43:43.992Z,3.80
2017-12-27T21:46:11.436Z,3.17
2017-12-27T21:48:44.684Z,3.73
2017-12-27T21:51:12.127Z,2.87
2017-12-27T21:53:39.589Z,3.30
2017-12-27T21:56:07.038Z,3.40
2017-12-27T21:58:40.095Z,3.83
2017-12-27T22:01:13.218Z,2.70
2017-12-27T22:03:40.666Z,4.13
2017-12-27T22:06:08.106Z,2.60
2017-12-27T22:08:35.597Z,2.63
2017-12-27T22:11:03.045Z,5.13
2017-12-27T22:13:30.486Z,3.53
2017-12-27T22:15:57.981Z,3.00
2017-12-27T22:18:25.459Z,3.10
2017-12-27T22:20:58.558Z,3.20
2017-12-27T22:23:26.014Z,3.10
2017-12-27T22:25:53.476Z,3.10
2017-12-27T22:28:20.934Z,3.20
2017-12-27T22:30:48.388Z,3.60
2017-12-27T22:33:15.843Z,3.30
2017-12-27T22:35:43.300Z,3.40
2017-12-27T22:38:10.759Z,2.73
2017-12-27T22:40:38.214Z,2.47
2017-12-27T22:43:05.676Z,3.30
2017-12-27T22:45:33.190Z,2.87
2017-12-27T22:48:00.676Z,2.40
2017-12-27T22:50:28.118Z,2.20
2017-12-27T22:52:55.614Z,2.27
2017-12-27T22:55:23.058Z,2.13
2017-12-27T22:57:50.501Z,2.20
2017-12-27T23:00:17.949Z,2.23
2017-12-27T23:02:45.386Z,4.20
2017-12-27T23:05:12.879Z,2.33
2017-12-27T23:07:40.344Z,2.83
2017-12-27T23:10:07.788Z,1.70
2017-12-27T23:12:35.259Z,1.63
2017-12-27T23:15:02.707Z,1.70
2017-12-27T23:17:30.200Z,1.70
2017-12-27T23:19:57.642Z,1.73
2017-12-27T23:22:25.139Z,1.57
2017-12-27T23:24:52.646Z,1.73
2017-12-27T23:27:20.095Z,1.10
2017-12-27T23:29:47.550Z,1.00
2017-12-27T23:32:15.193Z,0.80
2017-12-27T23:34:42.639Z,0.90
2017-12-27T23:37:10.095Z,0.80
2017-12-27T23:39:37.591Z,0.90
2017-12-27T23:42:05.097Z,0.80
2017-12-27T23:44:32.553Z,0.83
2017-12-27T23:47:00.000Z,1.10
2017-12-27T23:49:27.475Z,1.20
2017-12-27T23:51:54.926Z,0.90
2017-12-27T23:54:22.416Z,1.30
2017-12-27T23:56:49.857Z,1.23
2017-12-27T23:59:17.312Z,1.00
